Time;durP1;ratioP1;P1;durP2;ratioP2;P2;SDS_P1;SDS_P2;PMS_P1;PMS_P2;Temp;Humidity;BMP_temperature;BMP_pressure;BME280_temperature;BME280_humidity;BME280_pressure;Samples;Min_cycle;Max_cycle;Signal;HPM_P1;HPM_P2
2022/04/20 00:00:34;;;;;;;3.40;2.73;;;;;;;8.27;48.47;99935.56;5084033;28;20229;-59
2022/04/20 00:02:59;;;;;;;3.37;2.40;;;;;;;7.90;49.25;99924.47;5092169;28;20183;-60
2022/04/20 00:05:25;;;;;;;2.77;2.20;;;;;;;7.98;49.47;99935.19;5093269;28;20185;-59
2022/04/20 00:07:50;;;;;;;5.30;2.50;;;;;;;7.82;49.55;99929.94;5093215;28;20181;-60
2022/04/20 00:10:15;;;;;;;3.77;2.33;;;;;;;7.79;49.53;99932.66;5083975;28;20182;-60
2022/04/20 00:12:41;;;;;;;4.27;2.43;;;;;;;7.81;49.71;99925.72;5106869;28;20205;-60
2022/04/20 00:15:07;;;;;;;3.87;2.20;;;;;;;7.83;50.21;99929.06;5091621;28;20626;-59
2022/04/20 00:17:32;;;;;;;2.93;2.20;;;;;;;7.71;50.08;99925.31;5092970;28;20621;-59
2022/04/20 00:19:57;;;;;;;3.03;2.37;;;;;;;7.72;49.64;99928.72;5092721;28;20216;-60
2022/04/20 00:22:22;;;;;;;2.40;2.17;;;;;;;7.58;49.89;99929.34;5098637;28;20234;-60
2022/04/20 00:24:48;;;;;;;2.83;2.50;;;;;;;7.57;49.98;99928.50;5092774;28;20196;-61
2022/04/20 00:27:13;;;;;;;8.03;2.70;;;;;;;7.61;49.98;99930.94;5092340;28;20224;-59
2022/04/20 00:29:38;;;;;;;3.20;2.77;;;;;;;7.72;49.72;99934.66;5092289;28;20181;-60
2022/04/20 00:32:04;;;;;;;4.53;2.73;;;;;;;7.68;50.32;99928.03;5085270;28;20598;-60
2022/04/20 00:34:29;;;;;;;6.13;2.57;;;;;;;7.50;50.48;99928.84;5064501;28;20272;-60
2022/04/20 00:36:55;;;;;;;3.47;2.60;;;;;;;7.43;50.38;99926.56;5072442;28;20182;-60
2022/04/20 00:39:21;;;;;;;3.47;2.37;;;;;;;7.46;50.31;99925.59;5072109;28;20187;-59
2022/04/20 00:41:46;;;;;;;4.00;2.63;;;;;;;7.49;49.88;99932.31;5064157;28;20322;-59
2022/04/20 00:44:12;;;;;;;8.40;2.83;;;;;;;7.45;50.07;99925.66;5074303;28;20247;-61
2022/04/20 00:46:38;;;;;;;3.37;2.80;;;;;;;7.46;50.26;99925.59;5071035;28;20182;-60
2022/04/20 00:49:05;;;;;;;3.53;2.37;;;;;;;7.32;50.91;99922.81;5070500;28;20181;-60
2022/04/20 00:51:31;;;;;;;2.70;2.20;;;;;;;7.39;50.76;99927.59;5063688;28;20274;-60
2022/04/20 00:54:01;;;;;;;4.17;2.87;;;;;;;7.27;51.09;99928.13;5070473;28;20182;-59
2022/04/20 00:56:27;;;;;;;3.97;3.00;;;;;;;7.29;51.23;99923.75;5071518;28;20273;-61
2022/04/20 00:58:55;;;;;;;5.87;3.03;;;;;;;7.32;51.29;99926.22;5074959;28;20185;-61
2022/04/20 01:01:21;;;;;;;3.40;2.63;;;;;;;7.30;51.18;99919.50;5062914;28;20270;-60
2022/04/20 01:03:46;;;;;;;4.70;2.40;;;;;;;7.43;50.91;99928.31;5076812;28;20178;-61
2022/04/20 01:06:11;;;;;;;3.30;2.90;;;;;;;7.41;51.12;99927.53;5071402;28;20260;-61
2022/04/20 01:08:36;;;;;;;4.53;2.40;;;;;;;7.17;52.16;99927.72;5071084;28;20192;-61
2022/04/20 01:11:03;;;;;;;2.97;2.40;;;;;;;7.14;52.32;99924.44;5068243;28;20228;-60
2022/04/20 01:13:28;;;;;;;3.13;2.50;;;;;;;7.15;52.41;99924.38;5069779;28;20613;-61
2022/04/20 01:15:54;;;;;;;6.57;2.80;;;;;;;7.00;52.96;99922.50;5071406;28;20255;-61
2022/04/20 01:18:20;;;;;;;4.00;2.73;;;;;;;6.87;53.25;99928.13;5071283;28;20262;-60
2022/04/20 01:20:45;;;;;;;2.80;2.50;;;;;;;6.99;53.12;99924.19;5065816;28;20258;-60
2022/04/20 01:23:11;;;;;;;4.83;3.00;;;;;;;6.93;53.38;99920.19;5081250;28;20199;-60
2022/04/20 01:25:37;;;;;;;10.43;2.87;;;;;;;6.88;52.99;99921.25;5071326;28;20175;-60
2022/04/20 01:28:04;;;;;;;4.07;2.67;;;;;;;6.93;52.83;99927.88;5069862;28;20235;-60
2022/04/20 01:30:30;;;;;;;3.93;2.60;;;;;;;6.84;53.19;99920.56;5051354;28;20275;-62
2022/04/20 01:32:56;;;;;;;3.20;2.47;;;;;;;6.87;53.20;99922.16;5070151;28;20216;-60
2022/04/20 01:35:22;;;;;;;2.90;2.60;;;;;;;6.87;53.06;99927.28;5071275;28;20172;-61
2022/04/20 01:37:47;;;;;;;3.90;2.70;;;;;;;6.97;52.81;99918.34;5087139;28;20188;-60
2022/04/20 01:40:13;;;;;;;3.20;2.90;;;;;;;6.94;53.03;99916.72;5062133;28;20169;-61
2022/04/20 01:42:38;;;;;;;5.20;2.60;;;;;;;6.88;53.34;99918.72;5069497;28;20169;-60
2022/04/20 01:45:04;;;;;;;4.07;3.30;;;;;;;6.87;53.71;99919.59;5071594;28;20235;-60
2022/04/20 01:47:29;;;;;;;3.27;2.60;;;;;;;6.82;53.54;99914.66;5054098;28;20184;-62
2022/04/20 01:49:54;;;;;;;2.70;2.50;;;;;;;6.89;53.59;99917.81;5074850;28;20270;-60
2022/04/20 01:52:20;;;;;;;3.07;2.63;;;;;;;6.69;54.51;99921.22;5080238;28;20230;-61
2022/04/20 01:54:45;;;;;;;4.90;2.47;;;;;;;6.65;54.36;99920.50;5073784;28;20532;-60
2022/04/20 01:57:10;;;;;;;3.50;2.70;;;;;;;6.66;54.71;99919.63;5079454;28;20178;-60
2022/04/20 01:59:35;;;;;;;5.90;2.90;;;;;;;6.63;54.87;99912.06;5095068;28;20173;-60
2022/04/20 02:04:45;;;;;;;5.07;3.30;;;;;;;6.53;54.88;99919.28;5095299;28;20178;-60
2022/04/20 02:07:10;;;;;;;4.77;2.70;;;;;;;6.47;55.23;99924.63;5094328;28;20172;-59
2022/04/20 02:09:35;;;;;;;7.27;3.50;;;;;;;6.36;55.76;99924.22;5094757;28;20623;-58
2022/04/20 02:12:01;;;;;;;3.23;2.87;;;;;;;6.40;55.60;99925.75;5099929;28;20238;-59
2022/04/20 02:14:26;;;;;;;5.53;3.40;;;;;;;6.31;55.67;99924.41;5095650;28;20636;-59
2022/04/20 02:16:52;;;;;;;3.23;2.93;;;;;;;6.36;55.50;99926.78;5095267;28;20178;-60
2022/04/20 02:19:17;;;;;;;4.47;2.63;;;;;;;6.40;55.49;99931.72;5094235;28;20603;-58
2022/04/20 02:21:43;;;;;;;3.57;3.17;;;;;;;6.30;55.74;99938.91;5098450;28;20227;-60
2022/04/20 02:24:10;;;;;;;3.37;2.93;;;;;;;6.28;56.04;99922.00;5097074;28;20210;-60
2022/04/20 02:26:35;;;;;;;4.87;2.70;;;;;;;6.27;55.82;99930.53;5088226;28;20199;-59
2022/04/20 02:29:00;;;;;;;4.03;2.60;;;;;;;6.23;56.32;99926.44;5065042;28;20307;-59
2022/04/20 02:31:26;;;;;;;4.17;3.10;;;;;;;6.17;56.82;99924.97;5075438;28;20232;-59
2022/04/20 02:33:51;;;;;;;4.80;2.77;;;;;;;6.31;56.52;99921.84;5079672;28;20208;-59
2022/04/20 02:36:16;;;;;;;6.00;2.70;;;;;;;6.28;57.30;99933.03;5075068;28;20242;-61
2022/04/20 02:38:42;;;;;;;4.37;2.90;;;;;;;6.18;57.13;99930.88;5074442;28;20638;-60
2022/04/20 02:41:07;;;;;;;3.73;2.70;;;;;;;6.09;57.69;99930.38;5072256;28;20307;-59
2022/04/20 02:43:33;;;;;;;4.10;2.87;;;;;;;6.01;57.78;99941.78;5073548;28;20169;-60
2022/04/20 02:45:58;;;;;;;3.03;2.77;;;;;;;5.96;59.70;99944.47;5074791;28;20191;-60
2022/04/20 02:48:23;;;;;;;3.77;2.97;;;;;;;5.93;58.91;99940.31;5074618;28;20177;-59
2022/04/20 02:50:49;;;;;;;5.43;3.00;;;;;;;5.86;60.38;99940.59;5069075;28;20294;-61
2022/04/20 02:53:14;;;;;;;3.93;3.00;;;;;;;5.84;60.79;99942.38;5083888;28;20173;-60
2022/04/20 02:55:42;;;;;;;4.10;3.00;;;;;;;5.68;61.62;99940.41;5074335;28;20176;-60
2022/04/20 02:58:07;;;;;;;4.13;3.07;;;;;;;5.57;62.77;99938.22;5084868;28;20180;-60
2022/04/20 03:00:32;;;;;;;5.33;3.23;;;;;;;5.55;64.12;99949.38;5072460;28;20220;-59
2022/04/20 03:02:58;;;;;;;3.10;2.80;;;;;;;5.45;64.62;99939.50;5093601;28;20247;-60
2022/04/20 03:05:23;;;;;;;6.37;3.00;;;;;;;5.25;66.33;99937.66;5094467;28;20260;-60
2022/04/20 03:07:48;;;;;;;5.37;3.23;;;;;;;5.11;66.99;99948.34;5094315;28;20236;-59
2022/04/20 03:10:13;;;;;;;7.27;2.93;;;;;;;5.01;67.22;99950.38;5084855;27;20262;-59
2022/04/20 03:12:39;;;;;;;5.13;3.60;;;;;;;4.98;67.16;99947.09;5092852;28;20214;-59
2022/04/20 03:15:05;;;;;;;4.27;3.40;;;;;;;4.97;67.75;99953.91;5085318;28;20164;-58
2022/04/20 03:17:30;;;;;;;3.60;3.23;;;;;;;4.96;68.42;99953.94;5092772;28;20210;-59
2022/04/20 03:19:55;;;;;;;9.70;3.30;;;;;;;4.82;68.51;99957.78;5093870;28;20638;-59
2022/04/20 03:22:21;;;;;;;3.60;2.73;;;;;;;4.83;69.01;99959.44;5099316;28;20234;-60
2022/04/20 03:24:47;;;;;;;3.73;3.23;;;;;;;4.79;69.51;99964.72;5081779;28;20190;-60
2022/04/20 03:27:12;;;;;;;4.33;3.00;;;;;;;4.71;70.06;99962.41;5064979;28;20633;-60
2022/04/20 03:29:37;;;;;;;5.43;3.10;;;;;;;4.62;70.74;99953.34;5073761;28;20184;-59
2022/04/20 03:32:09;;;;;;;6.97;3.10;;;;;;;4.53;70.74;99958.75;5044499;28;20817;-59
2022/04/20 03:34:34;;;;;;;4.67;3.50;;;;;;;4.55;71.57;99961.22;5065747;28;20201;-58
2022/04/20 03:37:00;;;;;;;3.53;3.23;;;;;;;4.45;72.64;99955.59;5071702;28;20184;-61
2022/04/20 03:39:25;;;;;;;6.53;3.10;;;;;;;4.43;73.26;99962.44;5071598;28;20194;-59
2022/04/20 03:41:50;;;;;;;4.97;3.60;;;;;;;4.36;73.20;99960.09;5076338;28;20212;-59
2022/04/20 03:44:16;;;;;;;3.40;3.03;;;;;;;4.34;73.70;99963.56;5075117;28;20182;-59
2022/04/20 03:46:41;;;;;;;3.73;3.23;;;;;;;4.26;73.77;99965.53;5073261;28;20186;-59
2022/04/20 03:49:06;;;;;;;3.40;3.10;;;;;;;4.28;73.90;99973.94;5072919;28;20249;-59
2022/04/20 03:51:32;;;;;;;3.60;3.30;;;;;;;4.16;74.41;99973.44;5074493;28;20251;-58
2022/04/20 03:53:58;;;;;;;3.67;3.37;;;;;;;4.17;74.46;99972.56;5077133;28;20177;-59
2022/04/20 03:56:23;;;;;;;4.87;3.17;;;;;;;4.21;74.05;99968.22;5073072;28;20224;-59
2022/04/20 03:58:48;;;;;;;3.97;3.10;;;;;;;4.15;74.80;99973.50;5089500;28;20192;-59
2022/04/20 04:01:13;;;;;;;5.37;3.20;;;;;;;4.13;75.12;99972.69;5092077;28;20227;-60
2022/04/20 04:03:39;;;;;;;7.23;3.67;;;;;;;4.09;75.35;99966.84;5099669;28;20174;-59
2022/04/20 04:06:04;;;;;;;6.87;3.60;;;;;;;4.01;75.31;99961.19;5093225;28;20668;-60
2022/04/20 04:08:29;;;;;;;3.93;3.43;;;;;;;3.99;75.86;99979.00;5091640;28;20184;-59
2022/04/20 04:10:56;;;;;;;5.87;3.50;;;;;;;4.00;76.21;99974.78;5088684;28;20257;-58
2022/04/20 04:13:22;;;;;;;5.70;3.87;;;;;;;3.93;76.86;99969.03;5091709;28;20174;-61
2022/04/20 04:15:47;;;;;;;4.43;3.37;;;;;;;3.87;77.53;99966.69;5093059;28;20629;-59
2022/04/20 04:18:12;;;;;;;4.67;3.40;;;;;;;3.91;77.32;99968.25;5092512;28;20634;-60
2022/04/20 04:20:38;;;;;;;3.77;3.17;;;;;;;3.86;77.29;99976.00;5086468;28;20232;-60
2022/04/20 04:23:03;;;;;;;5.53;3.67;;;;;;;3.94;77.07;99980.88;5087527;28;20191;-59
2022/04/20 04:25:29;;;;;;;3.60;3.30;;;;;;;3.95;77.25;99980.00;5056173;28;20222;-59
2022/04/20 04:27:54;;;;;;;5.07;4.27;;;;;;;3.82;78.10;99981.22;5052430;28;20235;-59
2022/04/20 04:30:19;;;;;;;5.23;3.47;;;;;;;3.96;77.75;99979.13;5044745;28;20332;-59
2022/04/20 04:32:45;;;;;;;3.20;2.90;;;;;;;3.99;77.54;99978.19;5065191;28;20286;-60
2022/04/20 04:35:10;;;;;;;3.60;3.30;;;;;;;4.07;76.79;99976.28;5052470;28;20397;-60
2022/04/20 04:37:36;;;;;;;4.47;3.30;;;;;;;3.96;76.11;99976.56;5052337;28;20186;-59
2022/04/20 04:40:02;;;;;;;3.70;3.40;;;;;;;4.01;76.03;99977.28;5051519;28;20183;-60
2022/04/20 04:42:27;;;;;;;5.47;3.30;;;;;;;4.04;75.74;99978.88;5024928;28;20223;-59
2022/04/20 04:44:53;;;;;;;3.10;2.67;;;;;;;4.03;75.81;99982.31;5052205;28;20166;-60
2022/04/20 04:50:04;;;;;;;6.90;3.47;;;;;;;4.20;75.06;99975.03;5044981;28;20190;-59
2022/04/20 04:52:29;;;;;;;4.60;3.53;;;;;;;4.23;75.36;99971.56;5066162;28;20230;-58
2022/04/20 04:54:55;;;;;;;10.47;3.30;;;;;;;4.46;71.62;99978.47;5051602;28;20548;-59
2022/04/20 04:57:20;;;;;;;6.40;3.40;;;;;;;4.68;69.32;99976.06;5052159;28;20194;-58
2022/04/20 04:59:46;;;;;;;7.83;2.97;;;;;;;4.82;68.69;99975.63;5049832;28;20186;-59
2022/04/20 05:02:11;;;;;;;6.47;2.87;;;;;;;4.84;68.73;99978.13;5075086;28;20719;-59
2022/04/20 05:04:38;;;;;;;4.13;3.17;;;;;;;4.95;66.54;99981.16;5070384;28;20171;-59
2022/04/20 05:07:04;;;;;;;3.90;2.83;;;;;;;5.02;66.48;99979.22;5070838;28;20200;-60
2022/04/20 05:09:30;;;;;;;7.10;2.77;;;;;;;5.11;65.40;99975.53;5087219;28;20240;-59
2022/04/20 05:11:55;;;;;;;3.93;2.83;;;;;;;5.24;64.64;99983.63;5076232;28;20238;-59
2022/04/20 05:14:20;;;;;;;5.30;2.90;;;;;;;5.33;64.50;99986.69;5072806;28;20266;-59
2022/04/20 05:16:46;;;;;;;4.57;2.70;;;;;;;5.36;63.34;99983.19;5071624;28;20183;-59
2022/04/20 05:19:11;;;;;;;5.50;2.83;;;;;;;5.41;62.74;99980.47;5069405;28;20188;-59
2022/04/20 05:21:37;;;;;;;7.80;2.80;;;;;;;5.45;61.38;99976.94;5063462;28;20266;-60
2022/04/20 05:24:02;;;;;;;3.77;2.77;;;;;;;5.56;60.66;99974.00;5062341;28;20257;-60
2022/04/20 05:26:27;;;;;;;3.43;2.57;;;;;;;5.64;60.09;99972.84;5088033;28;20213;-65
2022/04/20 05:28:53;;;;;;;3.23;2.70;;;;;;;5.73;59.07;99975.94;5055520;28;20232;-59
2022/04/20 05:31:19;;;;;;;3.53;2.50;;;;;;;5.80;59.03;99975.69;5066079;28;20227;-59
2022/04/20 05:33:44;;;;;;;3.07;2.43;;;;;;;5.88;58.42;99989.84;5060030;28;20192;-60
2022/04/20 05:36:11;;;;;;;2.77;2.33;;;;;;;5.96;58.00;99986.13;5055690;28;20206;-60
2022/04/20 05:44:05;;;;;;;2.63;2.43;;;;;;;6.22;56.70;99981.78;5061989;28;20242;-60
2022/04/20 05:46:32;;;;;;;6.70;2.63;;;;;;;6.35;56.90;99989.00;5055318;28;20593;-60
2022/04/20 05:48:57;;;;;;;2.70;2.20;;;;;;;6.33;56.70;99983.94;5054956;28;20185;-60
2022/04/20 05:51:22;;;;;;;4.23;2.60;;;;;;;6.42;56.60;99993.78;5066246;28;20231;-60
2022/04/20 05:53:47;;;;;;;3.93;2.63;;;;;;;6.46;56.39;99989.41;5059091;28;20184;-60
2022/04/20 05:56:13;;;;;;;4.90;2.73;;;;;;;6.60;55.77;99994.00;5055009;28;20192;-60
2022/04/20 05:58:39;;;;;;;4.23;2.73;;;;;;;6.66;55.96;99988.63;5086772;28;20228;-59
2022/04/20 06:01:04;;;;;;;2.87;2.40;;;;;;;6.87;55.96;99983.53;5092287;28;20238;-60
2022/04/20 06:03:29;;;;;;;6.97;2.47;;;;;;;6.91;54.67;99982.53;5068273;28;20244;-63
2022/04/20 06:05:54;;;;;;;4.60;2.50;;;;;;;6.94;54.44;99985.75;5066825;28;20200;-61
2022/04/20 06:08:20;;;;;;;3.83;2.70;;;;;;;6.93;53.96;99978.16;5061904;28;20180;-60
2022/04/20 06:10:46;;;;;;;7.23;2.87;;;;;;;6.98;53.45;99975.41;5059885;28;20684;-59
2022/04/20 06:13:11;;;;;;;2.93;2.43;;;;;;;7.02;53.39;99988.03;5053236;28;20535;-60
2022/04/20 06:15:37;;;;;;;5.60;2.77;;;;;;;7.21;53.14;99982.13;5054396;28;20188;-60
2022/04/20 06:18:02;;;;;;;4.03;2.17;;;;;;;7.32;52.78;99973.97;5059191;28;20177;-61
2022/04/20 06:20:27;;;;;;;2.63;2.20;;;;;;;7.35;52.44;99969.56;5061687;28;20636;-60
2022/04/20 06:22:52;;;;;;;3.77;2.60;;;;;;;7.38;52.08;99978.81;5085366;28;20589;-60
2022/04/20 06:25:18;;;;;;;4.97;2.80;;;;;;;7.49;52.29;99980.94;5071753;28;20215;-59
2022/04/20 06:27:43;;;;;;;5.13;2.93;;;;;;;7.55;52.12;99984.06;5063584;28;20227;-60
2022/04/20 06:30:09;;;;;;;4.20;2.70;;;;;;;7.66;52.27;99978.44;5056950;28;20188;-59
2022/04/20 06:32:36;;;;;;;3.23;2.50;;;;;;;7.93;51.32;99982.44;5072232;28;20261;-60
2022/04/20 06:35:01;;;;;;;3.20;2.20;;;;;;;8.12;50.93;99979.84;5063949;28;20170;-60
2022/04/20 06:37:27;;;;;;;6.10;2.80;;;;;;;8.72;49.38;99984.75;5068399;28;20312;-59
2022/04/20 06:39:54;;;;;;;8.97;2.70;;;;;;;9.29;47.30;99979.34;5072621;28;20186;-60
2022/04/20 06:42:19;;;;;;;3.70;2.50;;;;;;;9.53;46.47;99979.78;5066379;28;20246;-59
2022/04/20 06:44:44;;;;;;;7.13;3.27;;;;;;;10.61;45.57;99983.44;5053109;28;20204;-63
2022/04/20 06:47:10;;;;;;;2.93;2.57;;;;;;;11.17;43.82;99987.97;5060608;28;20641;-61
2022/04/20 06:49:35;;;;;;;3.93;2.77;;;;;;;11.33;42.38;99987.91;5071501;28;20184;-60
2022/04/20 07:00:12;;;;;;;3.27;2.50;;;;;;;13.03;37.99;99989.38;5073672;28;20187;-61
2022/04/20 07:02:37;;;;;;;6.47;2.73;;;;;;;12.14;39.39;99993.38;5077895;28;20180;-59
2022/04/20 07:05:05;;;;;;;3.30;2.67;;;;;;;13.03;38.53;99987.59;5095092;28;20603;-60
2022/04/20 07:07:30;;;;;;;4.63;2.53;;;;;;;12.81;37.95;99989.97;5094903;28;20267;-60
2022/04/20 07:09:56;;;;;;;4.47;2.65;;;;;;;13.66;36.16;99994.66;5071065;28;20503;-59
2022/04/20 07:12:21;;;;;;;3.37;2.53;;;;;;;13.74;36.41;99994.94;5060469;28;20217;-60
2022/04/20 07:14:46;;;;;;;3.37;2.77;;;;;;;14.78;35.02;99992.78;5071899;28;20195;-60
2022/04/20 07:17:11;;;;;;;4.53;2.90;;;;;;;14.62;34.20;99993.06;5052149;28;20283;-61
2022/04/20 07:19:37;;;;;;;5.03;2.50;;;;;;;14.28;35.37;100000.69;5064635;28;20642;-60
2022/04/20 07:22:02;;;;;;;4.50;2.70;;;;;;;14.61;34.37;99999.16;5068798;28;20228;-62
2022/04/20 07:24:28;;;;;;;2.67;2.47;;;;;;;14.18;35.36;99995.34;5063105;28;20255;-60
2022/04/20 07:26:53;;;;;;;3.50;2.43;;;;;;;14.65;34.51;99998.03;5065808;28;20685;-60
2022/04/20 07:29:19;;;;;;;4.63;2.83;;;;;;;14.55;34.73;99992.69;5064587;28;20693;-61
2022/04/20 07:31:45;;;;;;;3.00;2.70;;;;;;;14.83;33.91;99994.09;5045142;28;20273;-60
2022/04/20 07:34:11;;;;;;;2.83;2.30;;;;;;;15.34;32.98;99981.66;5050109;28;21492;-59
2022/04/20 07:36:37;;;;;;;6.03;3.13;;;;;;;15.67;32.82;99992.97;5041085;28;20210;-60
2022/04/20 07:39:02;;;;;;;5.37;2.70;;;;;;;15.28;33.43;99990.75;5043560;28;20253;-61
2022/04/20 07:41:27;;;;;;;9.30;3.30;;;;;;;15.58;33.02;99985.91;5046220;28;20233;-60
2022/04/20 07:43:52;;;;;;;3.63;2.60;;;;;;;15.85;32.58;99982.16;5060743;28;20191;-62
2022/04/20 07:46:20;;;;;;;2.80;2.50;;;;;;;16.57;30.81;99981.56;5072116;28;20183;-61
2022/04/20 07:48:45;;;;;;;4.32;2.72;;;;;;;15.74;33.01;99988.13;5071608;28;20414;-59
2022/04/20 07:51:10;;;;;;;2.57;2.37;;;;;;;15.68;32.54;100001.56;5071757;28;20227;-59
2022/04/20 07:53:36;;;;;;;3.93;3.43;;;;;;;15.46;32.65;99998.06;5080264;28;20186;-60
2022/04/20 07:56:02;;;;;;;4.33;2.97;;;;;;;15.76;32.63;100002.63;5073263;28;20177;-59
2022/04/20 07:58:27;;;;;;;4.30;3.33;;;;;;;14.75;33.87;100006.78;5088080;28;20665;-62
2022/04/20 08:00:53;;;;;;;4.07;3.07;;;;;;;15.23;32.36;100008.41;5088557;28;20435;-61
2022/04/20 08:03:19;;;;;;;4.90;2.90;;;;;;;15.06;33.24;100006.25;5099735;28;20201;-60
2022/04/20 08:05:56;;;;;;;3.30;2.83;;;;;;;14.36;33.86;100011.28;5071110;28;20312;-60
2022/04/20 08:08:25;;;;;;;5.73;3.10;;;;;;;15.40;32.62;100009.72;5073210;28;20169;-61
2022/04/20 08:10:50;;;;;;;4.87;2.80;;;;;;;15.31;32.74;100006.06;5064265;28;20647;-59
2022/04/20 08:16:00;;;;;;;4.03;3.40;;;;;;;16.16;31.16;100006.47;5056077;28;20196;-60
2022/04/20 08:18:26;;;;;;;6.90;3.30;;;;;;;15.70;31.73;100003.09;5052756;28;20486;-59
2022/04/20 08:20:52;;;;;;;3.93;3.13;;;;;;;15.30;32.53;99998.41;5055102;28;20303;-60
2022/04/20 08:23:17;;;;;;;5.27;2.60;;;;;;;15.12;31.76;100004.03;5081601;28;20264;-61
2022/04/20 08:25:43;;;;;;;4.13;2.23;;;;;;;16.31;30.16;100001.84;5071723;28;20627;-60
2022/04/20 08:28:10;;;;;;;3.77;2.70;;;;;;;16.51;30.02;99999.41;5070904;28;20262;-61
2022/04/20 08:30:37;;;;;;;3.33;2.50;;;;;;;15.35;31.25;99996.28;5062953;28;20236;-59
2022/04/20 08:33:06;;;;;;;6.17;2.80;;;;;;;15.92;30.52;99993.69;5071118;28;20188;-62
2022/04/20 08:35:33;;;;;;;3.13;2.60;;;;;;;16.18;29.81;99996.00;5054678;28;20197;-59
2022/04/20 08:37:58;;;;;;;3.10;2.73;;;;;;;16.32;29.66;99994.88;5070198;28;20180;-61
2022/04/20 08:40:25;;;;;;;3.40;2.73;;;;;;;17.70;27.87;99995.56;5063601;28;20240;-60
2022/04/20 08:42:52;;;;;;;2.90;2.50;;;;;;;17.10;27.65;99993.69;5070851;28;20180;-60
2022/04/20 08:45:19;;;;;;;6.17;3.07;;;;;;;17.16;28.14;99999.31;5071069;28;20175;-60
2022/04/20 08:47:49;;;;;;;4.50;2.83;;;;;;;17.66;27.16;99989.00;5072527;28;20177;-61
2022/04/20 08:50:14;;;;;;;3.33;2.30;;;;;;;17.68;26.54;99994.88;5061578;28;20172;-61
2022/04/20 08:52:41;;;;;;;4.13;2.50;;;;;;;17.14;27.02;99983.88;5085738;28;20236;-66
2022/04/20 08:55:14;;;;;;;4.13;2.67;;;;;;;16.65;27.74;99991.31;5072165;28;20176;-58
2022/04/20 08:57:42;;;;;;;4.77;2.40;;;;;;;15.70;28.14;99987.53;5075876;28;20183;-60
2022/04/20 09:00:09;;;;;;;3.13;2.83;;;;;;;15.71;27.78;99989.19;5067024;28;20180;-60
2022/04/20 09:02:35;;;;;;;4.13;2.53;;;;;;;16.49;27.32;99985.75;5103359;28;20176;-61
2022/04/20 09:05:03;;;;;;;4.47;2.40;;;;;;;16.64;26.65;99991.44;5091965;28;20187;-60
2022/04/20 09:07:31;;;;;;;2.83;2.57;;;;;;;16.60;25.52;99983.09;5072225;28;20185;-60
2022/04/20 09:09:56;;;;;;;3.00;2.50;;;;;;;15.75;27.21;99988.03;5067761;28;20177;-60
2022/04/20 09:12:22;;;;;;;3.23;2.47;;;;;;;16.26;26.41;99985.81;5060038;28;20309;-61
2022/04/20 09:14:50;;;;;;;2.50;2.20;;;;;;;16.83;25.95;99977.75;5069581;28;20181;-61
2022/04/20 09:17:17;;;;;;;3.40;2.70;;;;;;;16.61;26.55;99975.16;5054367;28;20575;-59
2022/04/20 09:19:45;;;;;;;2.63;2.13;;;;;;;18.15;25.09;99988.31;5050212;28;20170;-61
2022/04/20 09:22:19;;;;;;;5.23;2.17;;;;;;;17.55;24.40;99973.47;5057645;28;20239;-60
2022/04/20 09:25:07;;;;;;;2.70;2.03;;;;;;;18.49;23.52;99969.66;5076268;28;20665;-60
2022/04/20 09:27:35;;;;;;;2.87;2.37;;;;;;;18.73;23.02;99964.03;5067328;28;20255;-60
2022/04/20 09:30:01;;;;;;;2.80;2.37;;;;;;;18.36;23.45;99962.13;5069795;28;20227;-59
2022/04/20 09:32:46;;;;;;;2.40;1.90;;;;;;;17.13;24.18;99963.19;5043841;28;20220;-59
2022/04/20 09:35:18;;;;;;;3.30;2.10;;;;;;;16.29;24.99;99957.84;5087157;28;20183;-60
2022/04/20 09:37:44;;;;;;;2.10;1.90;;;;;;;16.65;25.31;99960.16;5073635;28;20161;-60
2022/04/20 09:40:12;;;;;;;4.60;2.20;;;;;;;17.37;24.21;99955.91;5080753;28;20180;-59
2022/04/20 09:43:06;;;;;;;2.83;2.20;;;;;;;16.87;24.15;99951.41;5105908;28;20263;-59
2022/04/20 09:45:32;;;;;;;3.27;2.60;;;;;;;17.47;22.57;99952.53;5105575;28;20192;-59
2022/04/20 09:50:43;;;;;;;2.73;2.47;;;;;;;16.46;23.84;99932.28;5086012;28;20314;-59
2022/04/20 09:53:12;;;;;;;3.53;2.10;;;;;;;17.48;23.92;99943.78;5102076;28;20196;-60
2022/04/20 09:55:39;;;;;;;2.57;1.97;;;;;;;17.28;23.41;99943.69;5091731;28;20183;-62
2022/04/20 09:58:19;;;;;;;2.67;1.60;;;;;;;17.36;23.82;99941.25;5088167;28;20202;-60
2022/04/20 10:00:49;;;;;;;2.23;2.03;;;;;;;18.42;22.46;99926.91;5082591;28;20223;-59
2022/04/20 10:03:24;;;;;;;2.40;2.20;;;;;;;18.29;22.12;99928.00;5090087;28;20416;-59
2022/04/20 10:05:50;;;;;;;2.50;2.00;;;;;;;17.06;23.39;99932.53;5091345;28;20180;-60
2022/04/20 10:08:17;;;;;;;7.33;2.10;;;;;;;16.64;24.98;99931.72;5077243;28;20536;-60
2022/04/20 10:10:42;;;;;;;3.73;1.70;;;;;;;17.19;23.78;99924.53;5062011;28;20324;-59
2022/04/20 10:13:10;;;;;;;3.73;1.93;;;;;;;17.66;23.81;99929.19;5091518;28;20223;-60
2022/04/20 10:18:28;;;;;;;2.93;1.90;;;;;;;18.23;23.30;99920.75;5075229;28;20958;-60
2022/04/20 10:20:59;;;;;;;3.23;2.30;;;;;;;17.98;22.64;99920.31;5070942;28;20224;-60
2022/04/20 10:23:25;;;;;;;2.43;1.80;;;;;;;18.38;22.95;99916.78;5073293;28;20238;-60
2022/04/20 10:25:53;;;;;;;3.63;2.50;;;;;;;19.05;22.77;99912.50;5074659;28;20208;-59
2022/04/20 10:28:21;;;;;;;2.60;2.40;;;;;;;18.00;23.91;99920.22;5073273;28;20235;-59
2022/04/20 10:31:07;;;;;;;4.65;2.25;;;;;;;17.72;24.24;99909.59;5065196;28;20444;-60
2022/04/20 10:33:35;;;;;;;4.00;2.45;;;;;;;16.34;25.80;99908.16;5073092;28;20999;-61
2022/04/20 10:36:04;;;;;;;2.93;2.30;;;;;;;17.36;25.50;99902.25;5073247;28;20272;-60
2022/04/20 10:38:32;;;;;;;4.73;2.47;;;;;;;15.59;26.83;99915.81;5074464;28;20682;-59
2022/04/20 10:41:09;;;;;;;3.90;2.50;;;;;;;14.43;29.01;99903.00;5065324;28;20235;-59
2022/04/20 10:43:38;;;;;;;3.07;2.40;;;;;;;13.81;29.94;99904.88;5071868;28;20191;-59
2022/04/20 10:46:08;;;;;;;3.57;2.30;;;;;;;13.44;31.38;99889.38;5066504;28;20695;-60
2022/04/20 10:48:52;;;;;;;4.03;2.70;;;;;;;13.37;30.08;99887.22;5071282;28;20216;-59
2022/04/20 10:51:22;;;;;;;3.20;2.83;;;;;;;13.34;31.11;99897.72;5063643;28;20321;-58
2022/04/20 10:53:50;;;;;;;3.23;2.73;;;;;;;13.20;31.31;99890.94;5055182;28;20177;-58
2022/04/20 10:56:20;;;;;;;2.60;2.13;;;;;;;13.45;30.64;99884.09;5054912;28;20185;-60
2022/04/20 10:59:08;;;;;;;6.43;3.53;;;;;;;13.56;31.43;99868.66;5087691;28;20176;-60
2022/04/20 11:02:02;;;;;;;4.47;2.83;;;;;;;13.82;31.23;99873.72;5062859;28;20335;-61
2022/04/20 11:04:48;;;;;;;8.10;2.60;;;;;;;13.90;31.95;99865.41;5070812;28;20201;-60
2022/04/20 11:07:22;;;;;;;2.40;2.10;;;;;;;13.53;31.11;99865.44;5062732;28;20188;-59
2022/04/20 11:09:49;;;;;;;3.67;2.40;;;;;;;13.67;30.56;99877.41;5071279;28;20187;-59
2022/04/20 11:18:38;;;;;;;3.87;2.40;;;;;;;13.85;30.75;99850.25;5063503;28;20204;-61
2022/04/20 11:21:03;;;;;;;3.20;2.53;;;;;;;13.67;30.24;99849.81;5049440;28;20259;-60
2022/04/20 11:23:48;;;;;;;2.40;2.20;;;;;;;13.90;30.17;99849.91;5072265;28;20196;-60
2022/04/20 11:26:30;;;;;;;2.90;2.57;;;;;;;13.93;30.52;99844.50;5073251;28;20177;-60
2022/04/20 11:29:18;;;;;;;2.53;2.30;;;;;;;13.63;29.98;99839.78;5072863;28;20742;-58
2022/04/20 11:31:48;;;;;;;3.33;2.10;;;;;;;13.74;29.38;99845.00;5030505;28;20232;-59
2022/04/20 11:34:17;;;;;;;2.73;2.20;;;;;;;13.71;30.05;99845.22;5051373;28;20656;-60
2022/04/20 11:36:46;;;;;;;5.15;2.42;;;;;;;14.07;29.32;99830.56;5051104;28;20521;-60
2022/04/20 11:39:13;;;;;;;4.93;2.63;;;;;;;14.02;29.70;99828.31;5051363;28;20196;-60
2022/04/20 11:41:47;;;;;;;5.30;2.40;;;;;;;14.31;29.34;99830.53;5045070;28;20275;-60
2022/04/20 11:44:28;;;;;;;2.37;2.17;;;;;;;14.27;28.73;99828.28;5073107;28;20322;-60
2022/04/20 11:47:01;;;;;;;5.33;2.30;;;;;;;13.96;28.94;99836.53;5073217;28;20184;-60
2022/04/20 11:49:42;;;;;;;2.07;1.83;;;;;;;13.80;29.85;99829.06;5072838;28;20176;-59
2022/04/20 11:52:15;;;;;;;4.20;2.20;;;;;;;13.86;29.42;99826.03;5063416;28;20315;-59
2022/04/20 11:54:45;;;;;;;4.17;2.10;;;;;;;14.11;29.78;99813.06;5070703;28;20177;-60
2022/04/20 11:57:11;;;;;;;4.07;2.37;;;;;;;14.45;29.09;99815.72;5073724;28;20254;-60
2022/04/20 11:59:48;;;;;;;4.03;2.50;;;;;;;14.22;28.54;99818.25;5052255;28;20174;-59
2022/04/20 12:02:14;;;;;;;2.93;2.33;;;;;;;14.19;28.67;99810.75;5057567;28;20232;-60
2022/04/20 12:04:42;;;;;;;3.13;2.37;;;;;;;14.47;28.85;99816.44;5067431;28;20193;-59
2022/04/20 12:07:08;;;;;;;2.97;2.30;;;;;;;14.34;28.43;99819.13;5072284;28;20226;-60
2022/04/20 12:09:39;;;;;;;3.50;2.33;;;;;;;14.18;29.00;99811.69;5072128;28;20272;-61